South Dorset, Vermont
Current Conditions -  °F | °C
As of 10:55 PM on Thursday 18 Dec 2014 (Local Time) from KRUT Reporting Station
Overcast Overcast  
Wind Chill: 21°   Ceiling: 2000
Heat Index: 28°   Visibility: 10mi
Dew Point: 25°   Wind: 7mph
Humidity: 86%   Direction: 350°N
Pressure: 29.88"   Gusts: NA
Location:  43.2618°N, 73.0663°W
Report Text: KRUT 190355Z 35006KT 10SM OVC020 M02/M04 A2988 RMK AO1
Loading
Personal Weather Stations






























Interactive Weather Map New forecast layout! Learn more

10-Day Weather Forecast

Advertisements
Track Severe Weather on mobile